createdAt,value
2017-09-23T00:00:45.368Z,30.03
2017-09-23T00:03:12.817Z,34.60
2017-09-23T00:05:41.084Z,28.60
2017-09-23T00:08:08.555Z,26.47
2017-09-23T00:10:36.021Z,31.17
2017-09-23T00:13:03.505Z,33.97
2017-09-23T00:15:30.978Z,25.80
2017-09-23T00:17:58.476Z,25.13
2017-09-23T00:20:25.956Z,30.73
2017-09-23T00:22:53.413Z,25.63
2017-09-23T00:25:20.895Z,28.43
2017-09-23T00:27:48.357Z,25.90
2017-09-23T00:30:15.938Z,28.27
2017-09-23T00:32:43.421Z,29.23
2017-09-23T00:35:10.885Z,28.93
2017-09-23T00:37:38.364Z,33.00
2017-09-23T00:40:05.824Z,28.37
2017-09-23T00:42:33.342Z,28.50
2017-09-23T00:45:01.573Z,33.37
2017-09-23T00:47:29.061Z,26.97
2017-09-23T00:49:56.534Z,29.70
2017-09-23T00:52:23.998Z,32.87
2017-09-23T00:54:51.474Z,25.50
2017-09-23T00:57:19.698Z,25.87
2017-09-23T00:59:47.242Z,29.10
2017-09-23T01:02:15.472Z,24.50
2017-09-23T01:04:42.921Z,23.00
2017-09-23T01:07:11.171Z,24.60
2017-09-23T01:09:38.647Z,25.10
2017-09-23T01:12:06.138Z,22.87
2017-09-23T01:14:34.393Z,23.00
2017-09-23T01:17:01.897Z,21.70
2017-09-23T01:19:29.372Z,26.77
2017-09-23T01:21:56.865Z,20.27
2017-09-23T01:24:24.337Z,23.53
2017-09-23T01:26:51.803Z,25.67
2017-09-23T01:29:20.076Z,24.63
2017-09-23T01:31:47.534Z,25.60
2017-09-23T01:34:15.008Z,20.73
2017-09-23T01:36:42.505Z,21.30
2017-09-23T01:39:09.979Z,23.57
2017-09-23T01:41:37.468Z,21.37
2017-09-23T01:44:04.927Z,21.07
2017-09-23T01:46:32.418Z,22.23
2017-09-23T01:49:00.003Z,20.70
2017-09-23T01:51:27.471Z,22.90
2017-09-23T01:53:54.954Z,21.40
2017-09-23T01:56:22.435Z,21.47
2017-09-23T01:58:49.928Z,20.97
2017-09-23T02:01:17.503Z,20.97
2017-09-23T02:03:44.959Z,19.40
2017-09-23T02:06:13.179Z,17.90
2017-09-23T02:08:40.660Z,23.53
2017-09-23T02:11:08.888Z,16.90
2017-09-23T02:13:36.472Z,20.43
2017-09-23T02:16:03.929Z,19.00
2017-09-23T02:18:31.434Z,19.07
2017-09-23T02:20:58.920Z,17.13
2017-09-23T02:23:26.394Z,19.60
2017-09-23T02:25:53.936Z,24.67
2017-09-23T02:28:21.398Z,17.30
2017-09-23T02:30:48.857Z,20.43
2017-09-23T02:33:16.365Z,19.50
2017-09-23T02:35:43.859Z,14.53
2017-09-23T02:38:11.334Z,16.03
2017-09-23T02:40:38.794Z,17.90
2017-09-23T02:43:06.271Z,14.67
2017-09-23T02:45:33.820Z,15.07
2017-09-23T02:48:01.307Z,15.73
2017-09-23T02:50:28.784Z,15.87
2017-09-23T02:52:56.464Z,15.17
2017-09-23T02:55:24.890Z,14.90
2017-09-23T02:57:52.384Z,14.97
2017-09-23T03:00:19.965Z,15.00
2017-09-23T03:02:47.422Z,16.53
2017-09-23T03:05:14.882Z,15.20
2017-09-23T03:07:43.132Z,14.57
2017-09-23T03:10:11.357Z,14.80
2017-09-23T03:12:38.946Z,18.47
2017-09-23T03:15:06.417Z,15.67
2017-09-23T03:17:33.996Z,14.40
2017-09-23T03:20:01.537Z,15.97
2017-09-23T03:22:29.002Z,15.20
2017-09-23T03:24:57.264Z,14.10
2017-09-23T03:27:24.730Z,15.60
2017-09-23T03:29:52.998Z,15.47
2017-09-23T03:32:21.221Z,17.27
2017-09-23T03:34:48.687Z,21.00
2017-09-23T03:37:16.166Z,15.43
2017-09-23T03:39:43.632Z,13.97
2017-09-23T03:42:11.895Z,16.60
2017-09-23T03:44:39.368Z,16.17
2017-09-23T03:47:06.836Z,14.03
2017-09-23T03:49:34.350Z,15.57
2017-09-23T03:52:01.824Z,18.53
2017-09-23T03:54:29.302Z,15.63
2017-09-23T03:56:56.770Z,15.20
2017-09-23T03:59:24.226Z,14.87
2017-09-23T04:01:51.717Z,15.70
2017-09-23T04:04:19.176Z,14.47
2017-09-23T04:06:47.423Z,14.90
2017-09-23T04:09:14.919Z,15.20
2017-09-23T04:11:42.422Z,13.17
2017-09-23T04:14:09.877Z,17.30
2017-09-23T04:16:38.112Z,13.67
2017-09-23T04:19:05.592Z,14.50
2017-09-23T04:21:33.117Z,14.00
2017-09-23T04:24:01.346Z,13.80
2017-09-23T04:26:28.818Z,15.77
2017-09-23T04:28:56.309Z,15.20
2017-09-23T04:31:23.787Z,12.00
2017-09-23T04:33:51.250Z,12.47
2017-09-23T04:36:18.739Z,12.47
2017-09-23T04:38:46.194Z,14.50
2017-09-23T04:41:13.688Z,16.60
2017-09-23T04:43:41.134Z,14.53
2017-09-23T04:46:09.373Z,13.67
2017-09-23T04:48:36.845Z,12.00
2017-09-23T04:51:04.309Z,19.00
2017-09-23T04:53:32.719Z,11.53
2017-09-23T04:56:00.957Z,13.97
2017-09-23T04:58:28.423Z,13.03
2017-09-23T05:00:55.927Z,14.40
2017-09-23T05:03:23.417Z,14.80
2017-09-23T05:05:50.877Z,17.33
2017-09-23T05:08:18.369Z,16.23
2017-09-23T05:10:46.634Z,16.23
2017-09-23T05:13:15.050Z,19.17
2017-09-23T05:15:42.511Z,17.37
2017-09-23T05:18:10.762Z,16.80
2017-09-23T05:20:38.321Z,14.50
2017-09-23T05:23:05.795Z,22.37
2017-09-23T05:25:34.786Z,15.90
2017-09-23T05:28:02.271Z,12.97
2017-09-23T05:30:30.614Z,13.17
2017-09-23T05:32:58.105Z,15.20
2017-09-23T05:35:25.564Z,13.50
2017-09-23T05:37:53.053Z,11.27
2017-09-23T05:40:21.333Z,14.43
2017-09-23T05:42:49.634Z,15.83
2017-09-23T05:45:17.888Z,15.70
2017-09-23T05:47:45.362Z,17.67
2017-09-23T05:50:12.842Z,17.20
2017-09-23T05:52:40.324Z,14.83
2017-09-23T05:55:08.570Z,17.87
2017-09-23T05:57:36.832Z,20.03
2017-09-23T06:00:05.189Z,13.23
2017-09-23T06:02:33.440Z,14.77
2017-09-23T06:05:00.918Z,12.40
2017-09-23T06:07:28.411Z,13.90
2017-09-23T06:09:55.873Z,15.33
2017-09-23T06:12:23.322Z,15.47
2017-09-23T06:14:50.830Z,13.50
2017-09-23T06:17:18.300Z,11.90
2017-09-23T06:19:45.769Z,17.73
2017-09-23T06:22:13.453Z,14.20
2017-09-23T06:24:40.913Z,12.40
2017-09-23T06:27:09.161Z,14.77
2017-09-23T06:29:36.634Z,13.23
2017-09-23T06:32:04.082Z,11.80
2017-09-23T06:34:32.376Z,15.73
2017-09-23T06:36:59.838Z,13.00
2017-09-23T06:39:27.346Z,14.50
2017-09-23T06:41:54.937Z,11.43
2017-09-23T06:44:23.537Z,10.80
2017-09-23T06:46:51.007Z,9.33
2017-09-23T06:49:18.616Z,11.67
2017-09-23T06:51:46.970Z,10.70
2017-09-23T06:54:14.567Z,16.93
2017-09-23T06:56:42.017Z,9.80
2017-09-23T06:59:09.490Z,16.10
2017-09-23T07:01:36.965Z,11.70
2017-09-23T07:04:05.331Z,11.23
2017-09-23T07:06:32.958Z,11.80
2017-09-23T07:09:00.410Z,11.30
2017-09-23T07:11:28.005Z,10.63
2017-09-23T07:13:56.242Z,10.37
2017-09-23T07:16:23.712Z,16.53
2017-09-23T07:18:51.194Z,15.83
2017-09-23T07:21:18.641Z,19.07
2017-09-23T07:23:47.009Z,15.60
2017-09-23T07:26:14.475Z,13.50
2017-09-23T07:28:41.985Z,11.67
2017-09-23T07:31:10.151Z,16.50
2017-09-23T07:33:38.351Z,12.93
2017-09-23T07:36:05.838Z,11.00
2017-09-23T07:38:33.318Z,12.17
2017-09-23T07:41:00.808Z,15.40
2017-09-23T07:43:28.659Z,13.47
2017-09-23T07:45:56.279Z,15.67
2017-09-23T07:48:23.752Z,16.20
2017-09-23T07:50:51.226Z,13.23
2017-09-23T07:53:18.784Z,16.30
2017-09-23T07:55:46.429Z,11.03
2017-09-23T07:58:14.913Z,10.60
2017-09-23T08:00:42.369Z,14.83
2017-09-23T08:03:10.631Z,14.63
2017-09-23T08:05:38.094Z,11.33
2017-09-23T08:08:05.567Z,11.90
2017-09-23T08:10:33.213Z,10.90
2017-09-23T08:13:01.578Z,12.83
2017-09-23T08:15:29.036Z,13.70
2017-09-23T08:17:56.540Z,13.70
2017-09-23T08:20:24.051Z,15.67
2017-09-23T08:22:51.527Z,16.63
2017-09-23T08:25:18.999Z,26.70
2017-09-23T08:27:48.002Z,16.37
2017-09-23T08:30:16.397Z,15.20
2017-09-23T08:32:43.887Z,16.57
2017-09-23T08:35:12.136Z,18.00
2017-09-23T08:37:39.679Z,17.90
2017-09-23T08:40:07.165Z,17.07
2017-09-23T08:42:34.710Z,16.70
2017-09-23T08:45:02.209Z,16.50
2017-09-23T08:47:29.851Z,17.10
2017-09-23T08:49:58.084Z,17.93
2017-09-23T08:52:25.582Z,14.37
2017-09-23T08:54:53.042Z,17.67
2017-09-23T08:57:20.543Z,13.63
2017-09-23T08:59:48.005Z,15.60
2017-09-23T09:02:16.376Z,16.30
2017-09-23T09:04:43.873Z,16.43
2017-09-23T09:07:11.376Z,19.93
2017-09-23T09:09:38.985Z,21.23
2017-09-23T09:12:07.377Z,20.13
2017-09-23T09:14:35.003Z,22.07
2017-09-23T09:17:02.520Z,19.20
2017-09-23T09:19:29.984Z,20.13
2017-09-23T09:21:58.243Z,20.53
2017-09-23T09:24:25.706Z,19.47
2017-09-23T09:26:53.230Z,20.07
2017-09-23T09:29:20.713Z,23.83
2017-09-23T09:31:48.193Z,21.53
2017-09-23T09:34:15.681Z,18.07
2017-09-23T09:36:43.165Z,17.27
2017-09-23T09:39:10.653Z,21.60
2017-09-23T09:41:38.128Z,19.10
2017-09-23T09:44:05.586Z,19.70
2017-09-23T09:46:33.112Z,20.83
2017-09-23T09:49:01.352Z,22.53
2017-09-23T09:51:28.929Z,22.07
2017-09-23T09:53:56.462Z,23.40
2017-09-23T09:56:23.931Z,21.63
2017-09-23T09:58:51.430Z,25.27
2017-09-23T10:01:18.957Z,25.77
2017-09-23T10:03:46.488Z,22.70
2017-09-23T10:06:13.960Z,22.30
2017-09-23T10:08:41.427Z,23.17
2017-09-23T10:11:08.901Z,21.87
2017-09-23T10:13:40.256Z,23.30
2017-09-23T10:16:08.505Z,23.10
2017-09-23T10:18:36.036Z,22.53
2017-09-23T10:21:04.298Z,21.97
2017-09-23T10:23:31.774Z,20.10
2017-09-23T10:25:59.235Z,19.03
2017-09-23T10:28:27.283Z,18.10
2017-09-23T10:30:54.759Z,22.20
2017-09-23T10:33:22.341Z,19.40
2017-09-23T10:35:49.814Z,16.93
2017-09-23T10:38:17.286Z,18.20
2017-09-23T10:40:44.782Z,17.40
2017-09-23T10:43:12.260Z,18.70
2017-09-23T10:45:40.610Z,18.47
2017-09-23T10:48:08.083Z,18.63
2017-09-23T10:50:35.561Z,19.10
2017-09-23T10:53:03.077Z,20.60
2017-09-23T10:55:30.547Z,20.10
2017-09-23T10:57:58.059Z,23.70
2017-09-23T11:00:25.525Z,21.23
2017-09-23T11:02:53.019Z,24.10
2017-09-23T11:05:20.490Z,23.63
2017-09-23T11:07:47.963Z,20.70
2017-09-23T11:10:15.571Z,24.70
2017-09-23T11:12:43.077Z,23.83
2017-09-23T11:15:10.586Z,22.20
2017-09-23T11:17:38.046Z,24.47
2017-09-23T11:20:05.532Z,24.60
2017-09-23T11:22:33.195Z,24.10
2017-09-23T11:25:01.444Z,26.70
2017-09-23T11:27:28.970Z,25.20
2017-09-23T11:29:56.451Z,26.03
2017-09-23T11:32:23.959Z,28.63
2017-09-23T11:34:51.444Z,27.87
2017-09-23T11:37:19.065Z,26.73
2017-09-23T11:39:46.549Z,25.47
2017-09-23T11:42:14.048Z,31.50
2017-09-23T11:44:41.612Z,30.60
2017-09-23T11:47:09.077Z,28.70
2017-09-23T11:49:36.591Z,28.87
2017-09-23T11:52:04.065Z,31.40
2017-09-23T11:54:31.618Z,26.90
2017-09-23T11:56:59.883Z,31.30
2017-09-23T11:59:28.238Z,30.70
2017-09-23T12:01:55.791Z,30.47
2017-09-23T12:04:23.270Z,25.43
2017-09-23T12:06:51.540Z,28.20
2017-09-23T12:09:19.011Z,28.87
2017-09-23T12:11:46.473Z,25.10
2017-09-23T12:14:13.971Z,28.17
2017-09-23T12:16:41.440Z,29.30
2017-09-23T12:19:09.020Z,28.73
2017-09-23T12:21:36.521Z,31.63
2017-09-23T12:24:03.986Z,33.30
2017-09-23T12:26:31.521Z,29.50
2017-09-23T12:28:59.040Z,23.63
2017-09-23T12:31:26.534Z,26.90
2017-09-23T12:33:53.998Z,24.97
2017-09-23T12:36:21.458Z,25.03
2017-09-23T12:38:49.725Z,21.60
2017-09-23T12:41:17.208Z,25.00
2017-09-23T12:43:44.811Z,22.10
2017-09-23T12:46:12.280Z,24.53
2017-09-23T12:48:39.745Z,24.20
2017-09-23T12:51:07.242Z,21.93
2017-09-23T12:53:34.720Z,22.57
2017-09-23T12:56:02.379Z,22.40
2017-09-23T12:58:29.854Z,22.87
2017-09-23T13:00:57.322Z,26.03
2017-09-23T13:03:24.817Z,24.70
2017-09-23T13:05:52.316Z,29.43
2017-09-23T13:08:19.792Z,25.13
2017-09-23T13:10:47.287Z,29.47
2017-09-23T13:13:14.760Z,28.70
2017-09-23T13:15:42.248Z,25.67
2017-09-23T13:18:09.750Z,25.80
2017-09-23T13:20:37.250Z,26.00
2017-09-23T13:23:04.904Z,29.60
2017-09-23T13:25:32.407Z,24.53
2017-09-23T13:27:59.890Z,26.20
2017-09-23T13:30:27.397Z,24.13
2017-09-23T13:32:55.678Z,29.07
2017-09-23T13:35:23.163Z,23.67
2017-09-23T13:37:50.650Z,20.37
2017-09-23T13:40:18.947Z,23.10
2017-09-23T13:42:46.419Z,29.57
2017-09-23T13:45:13.884Z,25.60
2017-09-23T13:47:41.364Z,28.23
2017-09-23T13:50:08.867Z,24.77
2017-09-23T13:52:36.513Z,24.90
2017-09-23T13:55:04.005Z,24.63
2017-09-23T13:57:31.507Z,20.23
2017-09-23T13:59:59.748Z,21.47
2017-09-23T14:02:27.326Z,23.13
2017-09-23T14:04:54.800Z,19.80
2017-09-23T14:07:23.152Z,20.90
2017-09-23T14:09:50.616Z,23.50
2017-09-23T14:12:18.193Z,30.97
2017-09-23T14:14:45.641Z,23.53
2017-09-23T14:17:13.888Z,29.67
2017-09-23T14:19:42.145Z,24.30
2017-09-23T14:22:10.419Z,23.50
2017-09-23T14:24:37.985Z,23.20
2017-09-23T14:27:05.442Z,23.67
2017-09-23T14:29:33.035Z,23.23
2017-09-23T14:32:00.528Z,22.77
2017-09-23T14:34:28.007Z,28.10
2017-09-23T14:36:55.496Z,30.20
2017-09-23T14:39:23.025Z,27.77
2017-09-23T14:41:50.498Z,31.57
2017-09-23T14:44:18.027Z,33.80
2017-09-23T14:46:46.348Z,39.67
2017-09-23T14:49:13.853Z,33.90
2017-09-23T14:51:41.323Z,35.07
2017-09-23T14:54:08.799Z,31.17
2017-09-23T14:56:36.315Z,37.17
2017-09-23T14:59:03.864Z,28.47
2017-09-23T15:01:31.322Z,30.83
2017-09-23T15:03:58.791Z,31.23
2017-09-23T15:06:26.320Z,35.63
2017-09-23T15:08:53.786Z,36.57
2017-09-23T15:11:21.272Z,33.43
2017-09-23T15:13:48.731Z,29.10
2017-09-23T15:16:16.353Z,27.20
2017-09-23T15:18:43.829Z,34.90
2017-09-23T15:21:11.313Z,36.10
2017-09-23T15:23:38.806Z,35.30
2017-09-23T15:26:06.287Z,40.60
2017-09-23T15:28:33.813Z,32.93
2017-09-23T15:31:01.302Z,35.07
2017-09-23T15:33:28.897Z,30.27
2017-09-23T15:35:56.350Z,32.77
2017-09-23T15:38:23.822Z,31.10
2017-09-23T15:40:51.345Z,28.30
2017-09-23T15:43:19.575Z,28.23
2017-09-23T15:45:47.173Z,25.50
2017-09-23T15:48:14.661Z,29.37
2017-09-23T15:50:42.193Z,32.27
2017-09-23T15:53:10.462Z,33.20
2017-09-23T15:55:37.993Z,42.07
2017-09-23T15:58:05.671Z,31.47
2017-09-23T16:00:33.922Z,36.97
2017-09-23T16:03:01.396Z,37.30
2017-09-23T16:05:28.890Z,35.13
2017-09-23T16:07:56.371Z,35.07
2017-09-23T16:10:23.876Z,33.43
2017-09-23T16:12:51.354Z,33.50
2017-09-23T16:15:18.859Z,33.63
2017-09-23T16:17:46.377Z,35.90
2017-09-23T16:20:13.839Z,32.87
2017-09-23T16:22:41.357Z,39.37
2017-09-23T16:25:08.838Z,37.77
2017-09-23T16:27:36.294Z,39.30
2017-09-23T16:30:03.788Z,40.47
2017-09-23T16:32:31.254Z,41.13
2017-09-23T16:34:58.771Z,38.00
2017-09-23T16:37:26.239Z,39.67
2017-09-23T16:39:53.708Z,39.67
2017-09-23T16:42:21.215Z,41.17
2017-09-23T16:44:48.693Z,46.23
2017-09-23T16:47:16.247Z,39.07
2017-09-23T16:49:43.715Z,42.30
2017-09-23T16:52:11.955Z,36.97
2017-09-23T16:54:39.592Z,40.53
2017-09-23T16:57:07.083Z,40.10
2017-09-23T16:59:34.601Z,40.70
2017-09-23T17:02:02.131Z,43.27
2017-09-23T17:04:30.457Z,36.97
2017-09-23T17:06:57.991Z,39.53
2017-09-23T17:09:25.463Z,38.03
2017-09-23T17:11:52.997Z,35.67
2017-09-23T17:14:20.511Z,38.90
2017-09-23T17:16:48.866Z,43.63
2017-09-23T17:19:17.199Z,45.50
2017-09-23T17:21:44.673Z,41.43
2017-09-23T17:24:12.175Z,40.90
2017-09-23T17:26:39.740Z,42.93
2017-09-23T17:29:07.559Z,38.40
2017-09-23T17:31:35.344Z,36.30
2017-09-23T17:34:02.886Z,44.27
2017-09-23T17:36:30.471Z,41.87
2017-09-23T17:38:58.772Z,46.77
2017-09-23T17:41:26.247Z,44.40
2017-09-23T17:43:53.908Z,44.90
2017-09-23T17:46:21.440Z,41.67
2017-09-23T17:48:49.734Z,46.53
2017-09-23T17:51:18.000Z,51.00
2017-09-23T17:53:45.490Z,55.90
2017-09-23T17:56:12.997Z,46.80
2017-09-23T17:58:41.266Z,50.47
2017-09-23T18:01:08.996Z,51.70
2017-09-23T18:03:36.565Z,50.93
2017-09-23T18:06:04.875Z,50.60
2017-09-23T18:08:33.607Z,50.53
2017-09-23T18:11:01.102Z,48.10
2017-09-23T18:13:28.649Z,51.07
2017-09-23T18:15:56.914Z,52.50
2017-09-23T18:18:24.434Z,50.17
2017-09-23T18:20:52.685Z,53.80
2017-09-23T18:23:20.226Z,51.13
2017-09-23T18:25:47.762Z,51.40
2017-09-23T18:28:15.421Z,56.00
2017-09-23T18:30:42.949Z,50.83
2017-09-23T18:33:10.439Z,55.00
2017-09-23T18:35:38.038Z,50.93
2017-09-23T18:38:06.347Z,54.67
2017-09-23T18:40:34.602Z,49.23
2017-09-23T18:43:02.116Z,49.80
2017-09-23T18:45:29.605Z,51.97
2017-09-23T18:47:57.222Z,53.60
2017-09-23T18:50:25.486Z,48.40
2017-09-23T18:52:52.992Z,55.67
2017-09-23T18:55:20.499Z,53.63
2017-09-23T18:57:48.000Z,48.83
2017-09-23T19:00:15.514Z,42.60
2017-09-23T19:02:43.052Z,48.23
2017-09-23T19:05:10.850Z,47.23
2017-09-23T19:07:38.488Z,47.43
2017-09-23T19:10:06.791Z,45.17
2017-09-23T19:12:35.056Z,46.97
2017-09-23T19:15:02.561Z,48.43
2017-09-23T19:17:30.091Z,52.07
2017-09-23T19:19:57.570Z,52.17
2017-09-23T19:22:25.055Z,45.73
2017-09-23T19:24:52.721Z,49.83
2017-09-23T19:27:20.206Z,48.83
2017-09-23T19:29:49.275Z,51.70
2017-09-23T19:32:16.877Z,49.50
2017-09-23T19:34:44.365Z,49.63
2017-09-23T19:37:11.900Z,50.33
2017-09-23T19:39:39.422Z,47.23
2017-09-23T19:42:07.709Z,49.57
2017-09-23T19:44:35.262Z,46.90
2017-09-23T19:47:02.884Z,45.80
2017-09-23T19:49:30.387Z,61.67
2017-09-23T19:51:58.850Z,45.77
2017-09-23T19:54:26.458Z,50.30
2017-09-23T19:56:54.717Z,49.60
2017-09-23T19:59:22.224Z,50.47
2017-09-23T20:01:49.734Z,48.13
2017-09-23T20:04:17.986Z,46.73
2017-09-23T20:06:45.491Z,48.63
2017-09-23T20:09:12.976Z,48.60
2017-09-23T20:11:40.470Z,53.60
2017-09-23T20:14:07.958Z,50.33
2017-09-23T20:16:35.480Z,49.17
2017-09-23T20:19:02.971Z,51.10
2017-09-23T20:21:30.577Z,50.47
2017-09-23T20:23:58.089Z,51.70
2017-09-23T20:26:25.662Z,50.03
2017-09-23T20:28:53.165Z,52.50
2017-09-23T20:31:21.425Z,49.03
2017-09-23T20:33:49.050Z,50.77
2017-09-23T20:36:16.530Z,52.23
2017-09-23T20:38:44.026Z,53.13
2017-09-23T20:41:12.284Z,52.70
2017-09-23T20:43:39.867Z,56.43
2017-09-23T20:46:07.364Z,54.03
2017-09-23T20:48:34.857Z,55.27
2017-09-23T20:51:02.461Z,53.27
2017-09-23T20:53:30.700Z,56.27
2017-09-23T20:55:58.197Z,53.90
2017-09-23T20:58:25.714Z,51.93
2017-09-23T21:00:53.201Z,56.07
2017-09-23T21:03:20.817Z,56.57
2017-09-23T21:05:48.282Z,60.47
2017-09-23T21:08:16.547Z,55.83
2017-09-23T21:10:44.047Z,63.83
2017-09-23T21:13:11.525Z,56.53
2017-09-23T21:15:39.031Z,59.17
2017-09-23T21:18:07.271Z,59.33
2017-09-23T21:20:35.089Z,51.57
2017-09-23T21:23:02.565Z,62.77
2017-09-23T21:25:30.033Z,60.27
2017-09-23T21:27:57.541Z,60.07
2017-09-23T21:30:25.030Z,57.73
2017-09-23T21:32:52.545Z,64.27
2017-09-23T21:35:20.035Z,57.47
2017-09-23T21:37:47.532Z,64.60
2017-09-23T21:40:15.014Z,59.63
2017-09-23T21:42:42.511Z,55.17
2017-09-23T21:45:10.025Z,50.73
2017-09-23T21:47:37.544Z,61.77
2017-09-23T21:50:05.073Z,54.70
2017-09-23T21:52:32.589Z,57.10
2017-09-23T21:55:00.090Z,63.03
2017-09-23T21:57:28.369Z,56.37
2017-09-23T21:59:55.856Z,61.13
2017-09-23T22:02:23.382Z,58.40
2017-09-23T22:04:50.897Z,64.67
2017-09-23T22:07:18.404Z,60.60
2017-09-23T22:09:45.919Z,57.13
2017-09-23T22:12:13.405Z,65.07
2017-09-23T22:14:41.022Z,64.40
2017-09-23T22:17:08.538Z,66.20
2017-09-23T22:19:36.221Z,63.67
2017-09-23T22:22:03.731Z,69.13
2017-09-23T22:24:32.052Z,72.50
2017-09-23T22:27:00.350Z,71.20
2017-09-23T22:29:28.595Z,65.97
2017-09-23T22:31:56.113Z,65.97
2017-09-23T22:34:23.612Z,70.27
2017-09-23T22:36:51.088Z,63.10
2017-09-23T22:39:18.737Z,61.40
2017-09-23T22:41:46.233Z,64.57
2017-09-23T22:44:13.734Z,71.30
2017-09-23T22:46:41.346Z,70.47
2017-09-23T22:49:09.586Z,63.43
2017-09-23T22:51:37.100Z,66.00
2017-09-23T22:54:04.725Z,64.27
2017-09-23T22:56:33.014Z,68.57
2017-09-23T22:59:00.502Z,70.07
2017-09-23T23:01:28.913Z,66.13
2017-09-23T23:03:57.155Z,75.23
2017-09-23T23:06:24.624Z,75.43
2017-09-23T23:08:52.230Z,73.23
2017-09-23T23:11:19.724Z,66.40
2017-09-23T23:13:47.210Z,68.03
2017-09-23T23:16:14.829Z,72.63
2017-09-23T23:18:42.314Z,74.33
2017-09-23T23:21:09.799Z,66.40
2017-09-23T23:23:38.172Z,63.73
2017-09-23T23:26:05.640Z,69.60
2017-09-23T23:28:33.217Z,61.67
2017-09-23T23:31:00.717Z,64.63
2017-09-23T23:33:28.194Z,64.63
2017-09-23T23:35:55.702Z,57.73
2017-09-23T23:38:23.191Z,53.53
2017-09-23T23:40:50.673Z,53.57
2017-09-23T23:43:18.201Z,51.80
2017-09-23T23:45:45.679Z,53.33
2017-09-23T23:48:13.178Z,49.40
2017-09-23T23:50:40.665Z,49.23
2017-09-23T23:53:08.277Z,51.60
2017-09-23T23:55:35.793Z,54.20
2017-09-23T23:58:03.283Z,50.87
